createdAt,value
2022-12-20T00:01:35.667Z,1.14
2022-12-20T00:04:06.720Z,0.92
2022-12-20T00:06:36.612Z,0.99
2022-12-20T00:09:08.950Z,0.95
2022-12-20T00:11:40.007Z,0.94
2022-12-20T00:14:08.610Z,0.91
2022-12-20T00:16:37.931Z,0.91
2022-12-20T00:19:08.423Z,0.80
2022-12-20T00:21:37.372Z,0.89
2022-12-20T00:24:08.094Z,0.83
2022-12-20T00:26:38.144Z,1.07
2022-12-20T00:29:07.186Z,1.02
2022-12-20T00:31:35.991Z,0.98
2022-12-20T00:34:04.669Z,1.14
2022-12-20T00:36:34.319Z,1.14
2022-12-20T00:39:03.096Z,1.00
2022-12-20T00:41:34.708Z,1.06
2022-12-20T00:44:03.223Z,0.90
2022-12-20T00:46:33.213Z,1.04
2022-12-20T00:49:01.528Z,1.05
2022-12-20T00:51:33.095Z,1.04
2022-12-20T00:54:01.016Z,1.23
2022-12-20T00:56:29.067Z,1.30
2022-12-20T00:59:00.378Z,1.45
2022-12-20T01:01:31.753Z,1.25
2022-12-20T01:04:00.439Z,1.26
2022-12-20T01:06:29.795Z,1.35
2022-12-20T01:08:58.688Z,1.39
2022-12-20T01:11:29.524Z,1.30
2022-12-20T01:14:03.906Z,1.43
2022-12-20T01:16:34.628Z,1.61
2022-12-20T01:19:02.888Z,1.46
2022-12-20T01:21:31.395Z,1.54
2022-12-20T01:23:59.558Z,1.48
2022-12-20T01:26:30.601Z,1.47
2022-12-20T01:29:01.745Z,1.54
2022-12-20T01:31:32.323Z,1.61
2022-12-20T01:34:01.282Z,1.70
2022-12-20T01:36:32.159Z,1.47
2022-12-20T01:39:02.041Z,1.39
2022-12-20T01:41:31.617Z,1.49
2022-12-20T01:44:03.484Z,1.51
2022-12-20T01:46:33.598Z,1.41
2022-12-20T01:49:06.139Z,1.17
2022-12-20T01:51:38.237Z,1.22
2022-12-20T01:54:11.648Z,1.41
2022-12-20T01:56:42.175Z,1.37
2022-12-20T01:59:13.872Z,1.36
2022-12-20T02:01:43.658Z,1.45
2022-12-20T02:04:11.831Z,1.54
2022-12-20T02:06:39.951Z,1.59
2022-12-20T02:09:09.095Z,1.57
2022-12-20T02:11:58.740Z,1.66
2022-12-20T02:14:40.837Z,1.45
2022-12-20T02:17:16.266Z,1.48
2022-12-20T02:20:08.527Z,1.35
2022-12-20T02:22:53.756Z,1.43
2022-12-20T02:25:44.170Z,1.45
2022-12-20T02:28:28.058Z,1.44
2022-12-20T02:31:01.742Z,1.69
2022-12-20T02:33:30.407Z,1.62
2022-12-20T02:35:58.373Z,1.42
2022-12-20T02:38:30.907Z,1.56
2022-12-20T02:41:03.394Z,1.40
2022-12-20T02:43:51.748Z,1.31
2022-12-20T02:46:24.755Z,1.53
2022-12-20T02:48:54.510Z,1.57
2022-12-20T02:51:24.624Z,1.51
2022-12-20T02:53:53.241Z,1.57
2022-12-20T02:56:26.288Z,1.58
2022-12-20T02:59:00.380Z,1.46
2022-12-20T03:01:33.087Z,1.35
2022-12-20T03:04:02.798Z,1.43
2022-12-20T03:06:31.254Z,1.35
2022-12-20T03:08:59.649Z,1.40
2022-12-20T03:11:27.703Z,1.42
2022-12-20T03:13:55.699Z,1.47
2022-12-20T03:16:23.686Z,1.80
2022-12-20T03:18:53.741Z,1.69
2022-12-20T03:21:21.765Z,1.84
2022-12-20T03:23:50.152Z,1.87
2022-12-20T03:26:18.164Z,2.41
2022-12-20T03:28:46.132Z,2.04
2022-12-20T03:31:14.189Z,2.09
2022-12-20T03:33:42.493Z,2.17
2022-12-20T03:36:12.256Z,2.00
2022-12-20T03:38:40.216Z,1.75
2022-12-20T03:41:08.325Z,1.89
2022-12-20T03:43:36.739Z,1.95
2022-12-20T03:46:04.925Z,1.77
2022-12-20T03:48:33.491Z,1.79
2022-12-20T03:51:01.509Z,1.60
2022-12-20T03:53:31.264Z,1.73
2022-12-20T03:55:59.365Z,1.57
2022-12-20T03:58:27.950Z,1.84
2022-12-20T04:00:57.410Z,1.72
2022-12-20T04:03:25.921Z,1.72
2022-12-20T04:05:53.997Z,1.58
2022-12-20T04:08:22.484Z,1.77
2022-12-20T04:11:09.167Z,1.65
2022-12-20T04:13:37.743Z,1.67
2022-12-20T04:16:06.214Z,1.74
2022-12-20T04:18:34.421Z,1.76
2022-12-20T04:21:02.614Z,1.69
2022-12-20T04:23:30.969Z,1.75
2022-12-20T04:26:00.557Z,1.75
2022-12-20T04:28:28.940Z,1.72
2022-12-20T04:30:57.562Z,1.74
2022-12-20T04:33:26.496Z,1.77
2022-12-20T04:35:55.210Z,1.86
2022-12-20T04:38:24.759Z,1.77
2022-12-20T04:40:54.003Z,1.83
2022-12-20T04:43:25.259Z,1.80
2022-12-20T04:45:56.363Z,1.79
2022-12-20T04:51:15.882Z,1.71
2022-12-20T04:53:49.648Z,1.82
2022-12-20T04:56:19.539Z,1.78
2022-12-20T04:58:50.987Z,1.79
2022-12-20T05:01:20.114Z,1.80
2022-12-20T05:03:49.692Z,1.70
2022-12-20T05:06:17.988Z,1.84
2022-12-20T05:08:46.653Z,1.83
2022-12-20T05:11:15.164Z,1.77
2022-12-20T05:13:43.370Z,1.82
2022-12-20T05:16:15.702Z,1.80
2022-12-20T05:18:49.470Z,1.91
2022-12-20T05:21:38.879Z,2.05
2022-12-20T05:24:47.361Z,2.05
2022-12-20T05:30:58.164Z,1.98
2022-12-20T08:12:27.317Z,2.16
2022-12-20T08:22:28.805Z,2.05
2022-12-20T08:33:19.423Z,2.20
2022-12-20T08:39:34.199Z,2.34
2022-12-20T09:31:35.129Z,2.86
2022-12-20T09:34:18.328Z,2.69
2022-12-20T09:59:52.314Z,2.64
2022-12-20T10:02:56.569Z,2.76
2022-12-20T11:33:58.453Z,3.26
2022-12-20T11:36:34.249Z,3.17
2022-12-20T11:39:11.653Z,2.81
2022-12-20T11:41:51.938Z,3.16
2022-12-20T11:44:33.458Z,3.20
2022-12-20T11:47:33.856Z,2.94
2022-12-20T11:50:22.525Z,2.83
2022-12-20T11:52:59.149Z,3.03
2022-12-20T11:55:30.433Z,3.18
2022-12-20T11:58:30.574Z,3.06
2022-12-20T12:01:05.773Z,3.16
2022-12-20T12:03:39.395Z,3.13
2022-12-20T12:06:34.650Z,3.25
2022-12-20T12:09:14.578Z,3.17
2022-12-20T12:14:53.624Z,3.34
2022-12-20T12:17:31.477Z,3.01
2022-12-20T12:20:19.402Z,2.95
2022-12-20T12:22:55.601Z,3.13
2022-12-20T12:25:24.952Z,3.04
2022-12-20T12:27:54.177Z,3.13
2022-12-20T12:30:27.032Z,3.13
2022-12-20T12:33:03.337Z,3.08
2022-12-20T12:35:56.073Z,3.18
2022-12-20T12:38:46.341Z,3.21
2022-12-20T12:41:32.906Z,3.17
2022-12-20T12:44:33.287Z,3.13
2022-12-20T12:47:22.585Z,3.17
2022-12-20T13:14:54.270Z,3.21
2022-12-20T13:17:50.605Z,3.26
2022-12-20T13:20:25.166Z,3.05
2022-12-20T13:23:17.275Z,3.20
2022-12-20T13:25:48.117Z,3.21
2022-12-20T13:28:47.396Z,3.20
2022-12-20T13:31:35.462Z,3.19
2022-12-20T13:34:04.236Z,3.18
2022-12-20T13:36:36.608Z,3.26
2022-12-20T13:39:35.672Z,3.24
2022-12-20T13:42:24.403Z,3.35
2022-12-20T13:44:55.579Z,3.32
2022-12-20T13:47:47.237Z,3.43
2022-12-20T13:50:40.687Z,3.56
2022-12-20T13:53:19.004Z,3.34
2022-12-20T13:55:47.443Z,3.54
2022-12-20T13:58:19.397Z,3.46
2022-12-20T14:00:48.743Z,3.38
2022-12-20T14:03:25.724Z,3.20
2022-12-20T14:05:59.816Z,3.32
2022-12-20T14:08:31.053Z,3.33
2022-12-20T14:11:11.056Z,3.30
2022-12-20T14:13:39.975Z,3.29
2022-12-20T14:16:15.837Z,3.35
2022-12-20T14:18:50.488Z,3.26
2022-12-20T14:21:20.134Z,3.40
2022-12-20T14:23:51.326Z,3.39
2022-12-20T14:26:25.987Z,3.50
2022-12-20T14:28:57.226Z,3.40
2022-12-20T14:31:27.925Z,3.58
2022-12-20T14:34:13.617Z,3.50
2022-12-20T14:36:44.742Z,3.50
2022-12-20T14:39:26.639Z,3.40
2022-12-20T14:41:59.960Z,3.44
2022-12-20T14:44:30.472Z,3.43
2022-12-20T14:47:00.292Z,3.34
2022-12-20T14:49:32.439Z,3.36
2022-12-20T14:52:14.687Z,3.40
2022-12-20T14:57:41.618Z,3.42
2022-12-20T15:00:17.781Z,3.52
2022-12-20T15:02:51.904Z,3.51
2022-12-20T15:05:49.652Z,3.52
2022-12-20T15:08:20.618Z,3.70
2022-12-20T15:10:53.444Z,3.61
2022-12-20T15:13:23.966Z,3.42
2022-12-20T15:15:52.730Z,3.46
2022-12-20T15:18:23.244Z,3.56
2022-12-20T15:21:02.218Z,3.49
2022-12-20T15:23:31.756Z,3.70
2022-12-20T15:26:00.502Z,3.72
2022-12-20T15:28:29.319Z,3.78
2022-12-20T15:30:57.913Z,3.72
2022-12-20T15:33:29.140Z,3.59
2022-12-20T15:36:01.335Z,3.56
2022-12-20T15:38:54.807Z,3.64
2022-12-20T15:41:22.009Z,3.62
2022-12-20T15:43:53.301Z,3.55
2022-12-20T15:46:21.392Z,3.65
2022-12-20T15:48:49.933Z,3.72
2022-12-20T15:51:25.828Z,3.75
2022-12-20T15:53:54.497Z,3.78
2022-12-20T15:56:24.359Z,3.79
2022-12-20T15:58:53.015Z,3.72
2022-12-20T16:01:24.129Z,3.81
2022-12-20T16:03:52.800Z,3.74
2022-12-20T16:06:23.176Z,3.96
2022-12-20T16:08:51.607Z,3.98
2022-12-20T16:11:22.672Z,4.07
2022-12-20T16:13:51.946Z,3.94
2022-12-20T16:16:21.978Z,3.81
2022-12-20T16:18:52.076Z,3.83
2022-12-20T16:21:23.279Z,3.75
2022-12-20T16:23:52.010Z,3.72
2022-12-20T16:26:22.329Z,3.79
2022-12-20T16:28:51.548Z,3.55
2022-12-20T16:31:25.559Z,3.72
2022-12-20T16:33:54.425Z,3.78
2022-12-20T16:36:24.532Z,3.67
2022-12-20T16:38:54.112Z,3.79
2022-12-20T16:41:24.980Z,3.75
2022-12-20T16:43:53.059Z,3.74
2022-12-20T16:46:23.943Z,3.87
2022-12-20T16:48:53.254Z,3.78
2022-12-20T16:51:28.537Z,3.78
2022-12-20T16:56:47.941Z,3.75
2022-12-20T16:59:20.178Z,3.74
2022-12-20T17:01:51.434Z,3.73
2022-12-20T17:04:20.632Z,3.75
2022-12-20T17:06:50.417Z,3.65
2022-12-20T17:12:17.030Z,3.72
2022-12-20T17:14:45.473Z,3.67
2022-12-20T17:17:13.671Z,3.70
2022-12-20T17:19:41.716Z,3.60
2022-12-20T17:22:24.116Z,3.64
2022-12-20T17:24:52.745Z,3.70
2022-12-20T17:27:21.592Z,3.80
2022-12-20T17:29:50.828Z,3.75
2022-12-20T17:32:22.650Z,4.06
2022-12-20T17:34:51.704Z,4.02
2022-12-20T17:37:22.509Z,4.09
2022-12-20T17:39:51.319Z,4.04
2022-12-20T17:42:20.748Z,4.14
2022-12-20T17:44:52.310Z,4.05
2022-12-20T17:47:21.354Z,3.96
2022-12-20T17:49:50.853Z,3.99
2022-12-20T17:55:02.917Z,3.98
2022-12-20T17:57:31.686Z,3.97
2022-12-20T17:59:59.984Z,3.90
2022-12-20T18:02:29.498Z,3.89
2022-12-20T18:04:57.887Z,3.99
2022-12-20T18:07:26.307Z,3.95
2022-12-20T18:09:58.456Z,3.94
2022-12-20T18:12:34.000Z,4.33
2022-12-20T18:15:07.872Z,4.27
2022-12-20T18:17:36.416Z,4.42
2022-12-20T18:20:05.954Z,4.20
2022-12-20T18:22:35.454Z,4.03
2022-12-20T18:25:07.251Z,4.19
2022-12-20T18:27:42.629Z,4.22
2022-12-20T18:30:13.658Z,4.18
2022-12-20T18:32:42.553Z,4.07
2022-12-20T18:35:12.429Z,4.00
2022-12-20T18:37:40.621Z,3.96
2022-12-20T18:40:10.411Z,3.99
2022-12-20T18:42:40.040Z,3.91
2022-12-20T18:45:11.254Z,3.90
2022-12-20T18:47:39.822Z,3.94
2022-12-20T18:50:12.244Z,3.84
2022-12-20T18:52:43.183Z,3.98
2022-12-20T18:55:14.717Z,3.97
2022-12-20T18:57:44.145Z,3.86
2022-12-20T19:00:13.480Z,3.86
2022-12-20T19:02:42.211Z,3.77
2022-12-20T19:05:10.802Z,3.81
2022-12-20T19:07:38.853Z,3.78
2022-12-20T19:10:08.512Z,3.91
2022-12-20T19:13:05.965Z,3.91
2022-12-20T19:15:37.404Z,3.96
2022-12-20T19:18:07.079Z,3.99
2022-12-20T19:20:37.089Z,3.87
2022-12-20T19:23:05.891Z,3.95
2022-12-20T19:25:35.679Z,3.85
2022-12-20T19:28:04.626Z,3.81
2022-12-20T19:30:33.433Z,3.77
2022-12-20T19:33:04.214Z,3.77
2022-12-20T19:36:01.488Z,4.00
2022-12-20T19:38:21.450Z,4.10
2022-12-20T19:40:55.246Z,4.00
2022-12-20T19:43:24.066Z,4.02
2022-12-20T19:45:52.470Z,3.90
2022-12-20T19:48:22.402Z,3.79
2022-12-20T19:50:50.923Z,3.97
2022-12-20T19:53:19.221Z,3.82
2022-12-20T19:55:54.219Z,3.75
2022-12-20T19:58:22.453Z,3.80
2022-12-20T20:00:50.815Z,3.68
2022-12-20T20:03:20.517Z,3.76
2022-12-20T20:05:50.378Z,3.70
2022-12-20T20:08:19.130Z,3.65
2022-12-20T20:10:49.358Z,3.64
2022-12-20T20:13:20.417Z,3.78
2022-12-20T20:15:52.254Z,3.61
2022-12-20T20:18:20.875Z,3.61
2022-12-20T20:20:50.511Z,3.68
2022-12-20T20:23:19.212Z,3.75
2022-12-20T20:25:48.050Z,3.81
2022-12-20T20:28:16.633Z,3.96
2022-12-20T20:30:46.884Z,4.21
2022-12-20T20:33:15.311Z,3.96
2022-12-20T20:35:46.931Z,3.80
2022-12-20T20:38:20.920Z,3.82
2022-12-20T20:40:49.288Z,3.82
2022-12-20T20:43:17.909Z,3.87
2022-12-20T20:45:46.727Z,3.79
2022-12-20T20:48:15.230Z,3.72
2022-12-20T20:50:44.620Z,3.73
2022-12-20T20:53:13.429Z,3.69
2022-12-20T20:55:42.933Z,3.54
2022-12-20T20:58:10.987Z,3.53
2022-12-20T21:00:39.490Z,3.54
2022-12-20T21:03:07.822Z,3.57
2022-12-20T21:06:22.010Z,3.66
2022-12-20T21:08:24.508Z,3.70
2022-12-20T21:10:54.331Z,3.96
2022-12-20T21:13:22.648Z,4.04
2022-12-20T21:15:51.198Z,3.77
2022-12-20T21:18:19.755Z,3.73
2022-12-20T21:20:48.827Z,3.93
2022-12-20T21:23:17.309Z,3.84
2022-12-20T21:25:45.268Z,3.76
2022-12-20T21:28:20.949Z,3.65
2022-12-20T21:30:50.019Z,3.82
2022-12-20T21:33:18.031Z,3.93
2022-12-20T21:35:51.701Z,3.95
2022-12-20T21:38:22.176Z,4.03
2022-12-20T21:40:50.124Z,4.06
2022-12-20T21:43:19.861Z,3.91
2022-12-20T21:45:51.622Z,3.98
2022-12-20T21:48:20.250Z,3.98
2022-12-20T21:50:48.212Z,4.07
2022-12-20T21:53:19.627Z,3.94
2022-12-20T21:55:48.026Z,3.92
2022-12-20T21:58:16.065Z,3.96
2022-12-20T22:00:50.913Z,3.93
2022-12-20T22:03:22.803Z,3.99
2022-12-20T22:05:52.615Z,3.95
2022-12-20T22:08:22.102Z,4.10
2022-12-20T22:10:50.929Z,4.02
2022-12-20T22:13:19.592Z,4.03
2022-12-20T22:15:51.288Z,4.11
2022-12-20T22:18:19.938Z,4.15
2022-12-20T22:20:48.115Z,4.04
2022-12-20T22:23:16.341Z,3.97
2022-12-20T22:25:45.490Z,4.00
2022-12-20T22:28:13.599Z,4.09
2022-12-20T22:30:42.786Z,4.00
2022-12-20T22:33:12.812Z,4.02
2022-12-20T22:35:41.395Z,4.05
2022-12-20T22:38:09.419Z,3.97
2022-12-20T22:40:38.081Z,4.03
2022-12-20T22:43:06.018Z,4.06
2022-12-20T22:45:34.650Z,4.16
2022-12-20T22:48:03.309Z,4.10
2022-12-20T22:50:33.147Z,4.19
2022-12-20T22:53:01.316Z,4.13
2022-12-20T22:55:29.902Z,3.86
2022-12-20T22:57:57.983Z,3.84
2022-12-20T23:00:33.120Z,3.76
2022-12-20T23:03:02.316Z,3.69
2022-12-20T23:05:30.480Z,3.70
2022-12-20T23:07:59.818Z,3.61
2022-12-20T23:10:45.891Z,3.69
2022-12-20T23:13:31.570Z,3.64
2022-12-20T23:16:00.051Z,3.67
2022-12-20T23:18:28.003Z,3.87
2022-12-20T23:21:14.198Z,3.79
2022-12-20T23:23:43.924Z,3.84
2022-12-20T23:26:12.320Z,3.75
2022-12-20T23:28:40.355Z,3.95
2022-12-20T23:31:09.530Z,3.73
2022-12-20T23:33:38.628Z,3.59
2022-12-20T23:36:07.627Z,3.59
2022-12-20T23:38:37.134Z,3.41
2022-12-20T23:41:10.441Z,3.49
2022-12-20T23:43:38.466Z,3.43
2022-12-20T23:46:08.701Z,3.43
2022-12-20T23:48:37.382Z,3.42
2022-12-20T23:51:06.515Z,3.37
2022-12-20T23:53:35.293Z,3.53
2022-12-20T23:56:06.114Z,3.54
2022-12-20T23:58:36.216Z,3.41
